Latest Coastal Weather Observations for Cape Flattery

IDQ60701

Issued at 3:02 pm EST Friday 18 August 2017 (issued every 10 minutes, with the page automatically refreshed every 10 minutes)

About coastal observations | Map of coastal stations | Coastal observations for QLD | Marine services | Other Formats
Station Details ID: 031213 Name: CAPE FLATTERY Lat: -14.97 Lon: 145.31 Height: 18.5 m
Data from the previous 72 hours. | See also: Recent months at Cape Flattery
Date/Time
EST
Temp
°C
Wind Pressure Rain since
9am
mm
Weather Cloud Vis
km
Sea
Height
m
Swell
Dir  Spd
kts
Gust
kts
hPa Trend Height
m
Period
s
Dir
18/03:00pm 27.1 SE 15 20 1013.7 - 0.0 - - - - - - -
18/02:30pm 26.7 SSE 16 20 1014.0 - 0.0 - - - - - - -
18/02:00pm 27.7 SE 14 20 1014.2 - 0.0 - - - - - - -
18/01:30pm 28.0 SSE 17 22 1014.6 - 0.0 - - - - - - -
18/01:00pm 27.5 SE 16 22 1015.0 - 0.0 - - - - - - -
18/12:30pm 27.7 SE 16 21 1015.4 - 0.0 - - - - - - -
18/12:00pm 27.7 SSE 16 21 1015.7 - 0.0 - - - - - - -
18/11:30am 27.3 SE 17 23 1016.1 - 0.0 - - - - - - -
18/11:00am 27.0 SE 16 21 1016.5 - 0.0 - - - - - - -
18/10:30am 26.7 SE 15 20 1016.8 - 0.0 - - - - - - -
18/10:00am 26.1 SE 16 20 1016.9 - 0.0 - - - - - - -
18/09:30am 25.8 SE 14 19 1016.8 - 0.0 - - - - - - -
18/09:00am 25.9 SE 15 22 1016.5 - 0.0 - - - - - - -
18/08:30am 25.3 SE 14 18 1016.1 - 0.0 - - - - - - -
18/08:00am 24.2 SE 13 17 1015.7 - 0.0 - - - - - - -
18/07:30am 23.6 SE 12 17 1015.4 - 0.0 - - - - - - -
18/07:00am 22.9 SE 10 15 1015.1 - 0.0 - - - - - - -
18/06:30am 22.9 SE 11 15 1014.8 - 0.0 - - - - - - -
18/06:00am 22.8 ESE 11 15 1014.4 - 0.0 - - - - - - -
18/05:30am 23.1 ESE 9 13 1014.2 - 0.0 - - - - - - -
18/05:00am 23.1 ESE 9 14 1013.8 - 0.0 - - - - - - -
18/04:30am 23.0 ESE 10 15 1013.6 - 0.0 - - - - - - -
18/04:00am 23.8 SE 12 16 1013.4 - 0.0 - - - - - - -
18/03:30am 23.7 SE 11 17 1013.5 - 0.0 - - - - - - -
18/03:00am 23.8 ESE 11 16 1013.6 - 0.0 - - - - - - -
18/02:30am 23.5 SE 12 16 1013.6 - 0.0 - - - - - - -
18/02:00am 23.2 ESE 10 15 1013.8 - 0.0 - - - - - - -
18/01:30am 23.8 ESE 11 16 1013.9 - 0.0 - - - - - - -
18/01:00am 23.6 SE 11 15 1014.2 - 0.0 - - - - - - -
18/12:30am 23.3 SE 11 15 1014.3 - 0.0 - - - - - - -
18/12:00am 23.6 SE 12 15 1014.4 - 0.0 - - - - - - -
 
Date/Time
EST
Temp
°C
Wind Pressure Rain since
9am
mm
Weather Cloud Vis
km
Sea
Height
m
Swell
Dir  Spd
kts
Gust
kts
hPa Trend Height
m
Period
s
Dir
17/11:30pm 23.3 SE 11 15 1014.6 - 0.0 - - - - - - -
17/11:00pm 23.4 SE 10 14 1014.6 - 0.0 - - - - - - -
17/10:30pm 23.0 SE 8 12 1014.8 - 0.0 - - - - - - -
17/10:00pm 23.2 SE 9 13 1015.0 - 0.0 - - - - - - -
17/09:30pm 23.1 SE 9 13 1015.0 - 0.0 - - - - - - -
17/09:00pm 23.1 SE 10 13 1014.8 - 0.0 - - - - - - -
17/08:30pm 23.1 SE 9 12 1014.6 - 0.0 - - - - - - -
17/08:00pm 23.2 SE 9 12 1014.5 - 0.0 - - - - - - -
17/07:30pm 23.2 SE 8 11 1014.1 - 0.0 - - - - - - -
17/07:00pm 23.4 SE 8 13 1013.8 - 0.0 - - - - - - -
17/06:30pm 23.6 SE 9 12 1013.5 - 0.0 - - - - - - -
17/06:00pm 24.1 SE 11 14 1013.3 - 0.0 - - - - - - -
17/05:30pm 25.1 SE 12 15 1013.0 - 0.0 - - - - - - -
17/05:00pm 25.7 SE 14 18 1012.8 - 0.0 - - - - - - -
17/04:30pm 26.4 SE 13 17 1012.7 - 0.0 - - - - - - -
17/04:00pm 26.6 SE 14 18 1012.5 - 0.0 - - - - - - -
17/03:30pm 27.1 SE 14 18 1012.5 - 0.0 - - - - - - -
17/03:00pm 27.5 SE 14 19 1012.5 - 0.0 - - - - - - -
17/02:30pm 27.7 SE 15 20 1012.7 - 0.0 - - - - - - -
17/02:00pm 27.9 SE 16 22 1012.9 - 0.0 - - - - - - -
17/01:30pm 27.1 SE 14 19 1013.3 - 0.0 - - - - - - -
17/01:00pm 26.4 SE 15 18 1013.7 - 0.0 - - - - - - -
17/12:30pm 27.0 SE 14 20 1014.2 - 0.0 - - - - - - -
17/12:00pm 27.6 SE 15 21 1014.5 - 0.0 - - - - - - -
17/11:30am 27.7 SE 16 21 1015.0 - 0.0 - - - - - - -
17/11:00am 26.9 SE 16 22 1015.3 - 0.0 - - - - - - -
17/10:30am 28.0 SE 15 20 1015.6 - 0.0 - - - - - - -
17/10:00am 27.4 ESE 15 20 1015.8 - 0.0 - - - - - - -
17/09:30am 26.6 SE 15 19 1015.9 - 0.0 - - - - - - -
17/09:00am 25.8 SE 16 21 1015.7 - 0.0 - - - - - - -
17/08:30am 25.7 SE 13 19 1015.5 - 0.0 - - - - - - -
17/08:00am 24.8 SE 12 17 1015.2 - 0.0 - - - - - - -
17/07:30am 24.7 SE 13 19 1014.9 - 0.0 - - - - - - -
17/07:00am 24.0 ESE 15 22 1014.6 - 0.0 - - - - - - -
17/06:30am 23.5 SE 13 18 1014.2 - 0.0 - - - - - - -
17/06:00am 23.5 SE 14 19 1013.8 - 0.0 - - - - - - -
17/05:30am 23.7 SE 13 20 1013.5 - 0.0 - - - - - - -
17/05:00am 23.5 SE 14 18 1013.1 - 0.0 - - - - - - -
17/04:30am 23.5 SE 15 21 1012.9 - 0.0 - - - - - - -
17/04:00am 23.8 SE 15 22 1012.9 - 0.0 - - - - - - -
17/03:30am 23.7 SE 16 22 1012.9 - 0.0 - - - - - - -
17/03:00am 23.3 SE 15 20 1012.8 - 0.0 - - - - - - -
17/02:30am 23.5 SE 14 20 1013.1 - 0.0 - - - - - - -
17/02:00am 23.5 SE 16 22 1013.3 - 0.0 - - - - - - -
17/01:30am 23.5 SE 15 20 1013.5 - 0.0 - - - - - - -
17/01:00am 23.5 SE 15 21 1013.6 - 0.0 - - - - - - -
17/12:30am 23.7 SE 15 21 1013.7 - 0.0 - - - - - - -
17/12:00am 23.4 SE 13 18 1013.9 - 0.0 - - - - - - -
 
Date/Time
EST
Temp
°C
Wind Pressure Rain since
9am
mm
Weather Cloud Vis
km
Sea
Height
m
Swell
Dir  Spd
kts
Gust
kts
hPa Trend Height
m
Period
s
Dir
16/11:30pm 23.5 SE 14 20 1013.9 - 0.0 - - - - - - -
16/11:00pm 23.6 SE 15 21 1014.0 - 0.0 - - - - - - -
16/10:30pm 23.9 SE 14 21 1014.0 - 0.0 - - - - - - -
16/10:00pm 23.7 SE 13 21 1013.9 - 0.0 - - - - - - -
16/09:30pm 23.9 SE 14 20 1013.7 - 0.0 - - - - - - -
16/09:00pm 23.6 SE 13 20 1013.6 - 0.0 - - - - - - -
16/08:30pm 24.0 SE 15 21 1013.4 - 0.0 - - - - - - -
16/08:00pm 23.7 SE 13 20 1013.2 - 0.0 - - - - - - -
16/07:30pm 24.0 SE 14 20 1013.1 - 0.0 - - - - - - -
16/07:00pm 23.8 SE 15 22 1013.0 - 0.0 - - - - - - -
16/06:30pm 23.8 SE 14 19 1012.7 - 0.0 - - - - - - -
16/06:00pm 24.1 SE 12 20 1012.4 - 0.0 - - - - - - -
16/05:30pm 24.8 SE 15 21 1012.2 - 0.0 - - - - - - -
16/05:00pm 25.4 SE 16 21 1012.1 - 0.0 - - - - - - -
16/04:30pm 25.7 SE 17 22 1012.0 - 0.0 - - - - - - -
16/04:00pm 26.4 SE 16 22 1011.8 - 0.0 - - - - - - -
16/03:30pm 26.7 SE 17 23 1011.8 - 0.0 - - - - - - -
16/03:00pm 26.9 SE 17 23 1012.0 - 0.0 - - - - - - -
16/02:30pm 27.1 SE 18 23 1012.2 - 0.0 - - - - - - -
16/02:00pm 26.8 SE 16 22 1012.5 - 0.0 - - - - - - -
16/01:30pm 27.5 SE 16 21 1013.0 - 0.0 - - - - - - -
16/01:00pm 28.5 SE 15 20 1013.4 - 0.0 - - - - - - -
16/12:30pm 27.7 SE 15 22 1013.8 - 0.0 - - - - - - -
16/12:00pm 26.4 SE 15 20 1014.3 - 0.0 - - - - - - -
16/11:30am 27.9 SE 16 21 1014.6 - 0.0 - - - - - - -
16/11:00am 27.0 SE 14 19 1015.0 - 0.0 - - - - - - -
16/10:30am 27.1 ESE 15 19 1015.3 - 0.0 - - - - - - -
16/10:00am 26.7 ESE 16 21 1015.5 - 0.0 - - - - - - -
16/09:30am 26.5 SE 15 20 1015.6 - 0.0 - - - - - - -
16/09:00am 25.9 SE 13 18 1015.6 - 0.0 - - - - - - -
16/08:30am 25.8 SE 13 20 1015.3 - 0.0 - - - - - - -
16/08:00am 24.9 ESE 12 18 1015.0 - 0.0 - - - - - - -
16/07:30am 24.0 ESE 12 17 1014.7 - 0.0 - - - - - - -
16/07:00am 23.1 ESE 11 17 1014.5 - 0.0 - - - - - - -
16/06:30am 22.9 ESE 11 15 1014.3 - 0.0 - - - - - - -
16/06:00am 23.1 ESE 11 15 1013.9 - 0.0 - - - - - - -
16/05:30am 23.2 ESE 11 17 1013.7 - 0.0 - - - - - - -
16/05:00am 23.0 ESE 12 16 1013.5 - 0.0 - - - - - - -
16/04:30am 23.0 ESE 11 16 1013.3 - 0.0 - - - - - - -
16/04:00am 22.9 ESE 10 13 1013.3 - 0.0 - - - - - - -
16/03:30am 23.1 ESE 12 18 1013.3 - 0.0 - - - - - - -
16/03:00am 23.1 ESE 11 16 1013.4 - 0.0 - - - - - - -
16/02:30am 23.3 SE 11 16 1013.6 - 0.0 - - - - - - -
16/02:00am 23.2 ESE 11 16 1013.9 - 0.0 - - - - - - -
16/01:30am 23.2 ESE 12 19 1014.0 - 0.0 - - - - - - -
16/01:00am 23.4 ESE 11 18 1014.3 - 0.0 - - - - - - -
16/12:30am 23.6 SE 14 19 1014.6 - 0.0 - - - - - - -
16/12:00am 23.5 SE 13 18 1014.8 - 0.0 - - - - - - -
 
Date/Time
EST
Temp
°C
Wind Pressure Rain since
9am
mm
Weather Cloud Vis
km
Sea
Height
m
Swell
Dir  Spd
kts
Gust
kts
hPa Trend Height
m
Period
s
Dir
15/11:30pm 23.7 SE 14 19 1014.9 - 0.0 - - - - - - -
15/11:00pm 23.4 SE 12 17 1015.0 - 0.0 - - - - - - -
15/10:30pm 23.6 SE 14 22 1015.1 - 0.0 - - - - - - -
15/10:00pm 23.7 SE 15 23 1015.1 - 0.0 - - - - - - -
15/09:30pm 23.5 SE 13 17 1015.1 - 0.0 - - - - - - -
15/09:00pm 23.5 SE 14 20 1015.1 - 0.0 - - - - - - -
15/08:30pm 23.4 SE 15 20 1015.0 - 0.0 - - - - - - -
15/08:00pm 23.5 SE 15 22 1014.6 - 0.0 - - - - - - -
15/07:30pm 23.4 SE 13 17 1014.5 - 0.0 - - - - - - -
15/07:00pm 23.5 SE 15 20 1014.3 - 0.0 - - - - - - -
15/06:30pm 23.8 SE 15 19 1014.1 - 0.0 - - - - - - -
15/06:00pm 24.4 SE 16 23 1014.2 - 0.0 - - - - - - -
15/05:30pm 24.6 SE 15 21 1014.2 - 0.0 - - - - - - -
15/05:00pm 24.9 SE 17 24 1013.8 - 0.0 - - - - - - -
15/04:30pm 25.8 SSE 16 22 1013.6 - 0.0 - - - - - - -
15/04:00pm 26.2 SSE 17 25 1013.5 - 0.0 - - - - - - -
15/03:30pm 26.0 SE 18 23 1013.6 - 0.0 - - - - - - -

Other Formats:

Comma delimited format used in spreadsheet applications
http://www.bom.gov.au/fwo/IDQ60701/IDQ60701.94188.axf

JavaScript Object Notation format (JSON) in row-major order
http://www.bom.gov.au/fwo/IDQ60701/IDQ60701.94188.json